createdAt,value
2017-12-11T00:00:34.571Z,0.36
2017-12-11T00:03:04.192Z,0.30
2017-12-11T00:05:33.849Z,0.17
2017-12-11T00:08:03.821Z,0.22
2017-12-11T00:10:33.372Z,0.32
2017-12-11T00:13:02.771Z,0.17
2017-12-11T00:18:32.809Z,0.11
2017-12-11T00:21:02.870Z,-0.04
2017-12-11T00:23:32.545Z,-0.07
2017-12-11T00:26:02.495Z,-0.16
2017-12-11T00:28:32.446Z,-0.26
2017-12-11T00:31:02.909Z,-0.28
2017-12-11T00:33:32.806Z,-0.32
2017-12-11T00:36:02.720Z,-0.32
2017-12-11T00:38:33.410Z,-0.35
2017-12-11T00:41:03.311Z,-0.34
2017-12-11T00:43:33.190Z,-0.31
2017-12-11T00:46:02.502Z,-0.15
2017-12-11T00:48:32.086Z,-0.23
2017-12-11T00:51:01.803Z,-0.20
2017-12-11T00:53:31.707Z,-0.15
2017-12-11T00:56:01.672Z,-0.17
2017-12-11T00:58:31.543Z,-0.13
2017-12-11T01:01:01.507Z,-0.21
2017-12-11T01:03:31.183Z,-0.05
2017-12-11T01:06:00.698Z,-0.15
2017-12-11T01:08:30.604Z,-0.18
2017-12-11T01:11:00.492Z,-0.24
2017-12-11T01:13:30.455Z,-0.27
2017-12-11T01:16:00.328Z,-0.36
2017-12-11T01:18:30.197Z,-0.55
2017-12-11T01:21:00.095Z,-0.68
2017-12-11T01:23:29.974Z,-0.64
2017-12-11T01:25:59.830Z,-0.53
2017-12-11T01:28:29.753Z,-0.54
2017-12-11T01:30:59.399Z,-0.40
2017-12-11T01:33:29.001Z,-0.42
2017-12-11T01:35:58.921Z,-0.42
2017-12-11T01:38:28.895Z,-0.36
2017-12-11T01:40:58.517Z,-0.29
2017-12-11T01:43:28.519Z,-0.23
2017-12-11T01:45:58.172Z,-0.21
2017-12-11T01:48:27.795Z,-0.23
2017-12-11T01:50:57.415Z,-0.24
2017-12-11T01:53:28.258Z,-0.09
2017-12-11T01:55:58.142Z,-0.03
2017-12-11T01:58:28.320Z,-0.01
2017-12-11T02:00:58.205Z,0.06
2017-12-11T02:03:27.921Z,0.19
2017-12-11T02:05:57.784Z,0.14
2017-12-11T02:08:27.711Z,0.11
2017-12-11T02:10:57.301Z,0.12
2017-12-11T02:13:27.247Z,0.22
2017-12-11T02:15:57.933Z,0.31
2017-12-11T02:18:27.538Z,0.33
2017-12-11T02:20:57.485Z,0.36
2017-12-11T02:23:27.127Z,0.43
2017-12-11T02:25:56.400Z,0.53
2017-12-11T02:28:25.990Z,0.61
2017-12-11T02:30:55.596Z,0.79
2017-12-11T02:33:24.895Z,0.92
2017-12-11T02:35:54.197Z,0.95
2017-12-11T02:38:24.077Z,0.87
2017-12-11T02:40:53.646Z,0.92
2017-12-11T02:43:23.639Z,0.89
2017-12-11T02:45:52.967Z,0.72
2017-12-11T02:48:22.585Z,0.65
2017-12-11T02:50:52.093Z,0.53
2017-12-11T02:53:21.696Z,0.43
2017-12-11T02:55:51.564Z,0.39
2017-12-11T02:58:21.549Z,0.44
2017-12-11T03:00:51.502Z,0.42
2017-12-11T03:03:22.273Z,0.40
2017-12-11T03:05:52.157Z,0.38
2017-12-11T03:08:22.037Z,0.43
2017-12-11T03:10:51.922Z,0.35
2017-12-11T03:13:21.792Z,0.35
2017-12-11T03:15:51.672Z,0.28
2017-12-11T03:18:21.651Z,0.24
2017-12-11T03:20:51.616Z,0.20
2017-12-11T03:23:21.502Z,0.14
2017-12-11T03:25:51.402Z,0.18
2017-12-11T03:28:21.225Z,0.28
2017-12-11T03:30:50.750Z,0.34
2017-12-11T03:33:20.676Z,0.55
2017-12-11T03:35:50.593Z,0.60
2017-12-11T03:38:20.456Z,0.47
2017-12-11T03:40:50.309Z,0.34
2017-12-11T03:43:20.182Z,0.24
2017-12-11T03:45:50.355Z,0.24
2017-12-11T03:48:20.251Z,0.41
2017-12-11T03:50:49.797Z,0.43
2017-12-11T03:53:19.695Z,0.34
2017-12-11T03:55:49.584Z,0.30
2017-12-11T03:58:19.419Z,0.32
2017-12-11T04:00:48.721Z,0.38
2017-12-11T04:03:18.592Z,0.38
2017-12-11T04:05:48.542Z,0.41
2017-12-11T04:08:18.402Z,0.32
2017-12-11T04:10:48.322Z,0.27
2017-12-11T04:13:18.194Z,0.23
2017-12-11T04:15:48.107Z,0.19
2017-12-11T04:18:18.010Z,0.24
2017-12-11T04:20:48.049Z,0.34
2017-12-11T04:23:17.943Z,0.35
2017-12-11T04:25:47.861Z,0.39
2017-12-11T04:28:17.925Z,0.33
2017-12-11T04:30:47.843Z,0.28
2017-12-11T04:33:17.723Z,0.21
2017-12-11T04:35:47.619Z,0.16
2017-12-11T04:38:17.508Z,0.13
2017-12-11T04:40:47.142Z,0.05
2017-12-11T04:43:17.064Z,0.03
2017-12-11T04:45:47.029Z,0.13
2017-12-11T04:48:16.921Z,0.13
2017-12-11T04:50:46.852Z,0.07
2017-12-11T04:53:16.747Z,-0.04
2017-12-11T04:55:46.634Z,-0.17
2017-12-11T04:58:16.514Z,-0.28
2017-12-11T05:00:46.509Z,-0.35
2017-12-11T05:03:16.532Z,-0.42
2017-12-11T05:05:46.413Z,-0.38
2017-12-11T05:08:16.350Z,-0.50
2017-12-11T05:10:47.099Z,-0.58
2017-12-11T05:13:17.117Z,-0.69
2017-12-11T05:15:47.034Z,-0.79
2017-12-11T05:18:16.925Z,-0.87
2017-12-11T05:20:46.896Z,-0.92
2017-12-11T05:23:16.764Z,-0.98
2017-12-11T05:25:46.683Z,-0.89
2017-12-11T05:28:16.520Z,-0.90
2017-12-11T05:30:46.166Z,-1.02
2017-12-11T05:33:16.107Z,-1.11
2017-12-11T05:35:45.828Z,-1.21
2017-12-11T05:38:16.536Z,-1.32
2017-12-11T05:40:46.279Z,-1.42
2017-12-11T05:43:16.855Z,-1.32
2017-12-11T05:45:46.998Z,-1.04
2017-12-11T05:48:18.055Z,-1.08
2017-12-11T05:53:26.604Z,-1.27
2017-12-11T05:55:56.667Z,-1.29
2017-12-11T05:58:26.598Z,-1.24
2017-12-11T06:00:57.923Z,-1.20
2017-12-11T06:03:28.651Z,-1.13
2017-12-11T06:05:58.893Z,-0.99
2017-12-11T06:13:37.923Z,-0.95
2017-12-11T06:16:07.751Z,-0.92
2017-12-11T06:18:37.548Z,-0.87
2017-12-11T06:21:07.400Z,-0.59
2017-12-11T06:23:37.338Z,-0.47
2017-12-11T06:26:07.120Z,-0.54
2017-12-11T06:28:37.050Z,-0.58
2017-12-11T06:31:06.934Z,-0.59
2017-12-11T06:33:36.758Z,-0.72
2017-12-11T06:36:06.717Z,-0.66
2017-12-11T06:38:36.560Z,-0.63
2017-12-11T06:41:07.405Z,-0.64
2017-12-11T06:43:37.262Z,-0.64
2017-12-11T06:46:07.565Z,-0.66
2017-12-11T06:52:09.666Z,-0.57
2017-12-11T06:54:39.539Z,-0.54
2017-12-11T06:57:09.371Z,-0.52
2017-12-11T06:59:39.175Z,-0.53
2017-12-11T07:02:08.776Z,-0.50
2017-12-11T07:04:38.873Z,-0.48
2017-12-11T07:07:08.899Z,-0.47
2017-12-11T07:09:38.758Z,-0.45
2017-12-11T07:12:08.638Z,-0.41
2017-12-11T07:14:38.536Z,-0.18
2017-12-11T07:17:08.378Z,0.05
2017-12-11T07:19:38.250Z,0.11
2017-12-11T07:22:08.077Z,0.07
2017-12-11T07:24:38.155Z,0.00
2017-12-11T07:27:07.982Z,0.02
2017-12-11T07:29:37.858Z,0.17
2017-12-11T07:32:07.714Z,0.18
2017-12-11T07:34:37.623Z,0.22
2017-12-11T07:37:07.445Z,0.34
2017-12-11T07:39:37.266Z,0.37
2017-12-11T07:42:07.086Z,0.43
2017-12-11T07:44:36.909Z,0.52
2017-12-11T07:47:06.804Z,0.61
2017-12-11T07:49:36.430Z,0.70
2017-12-11T07:52:06.306Z,0.84
2017-12-11T07:54:35.904Z,0.97
2017-12-11T07:57:05.732Z,1.13
2017-12-11T07:59:36.746Z,1.35
2017-12-11T08:02:06.623Z,1.59
2017-12-11T08:04:36.543Z,1.71
2017-12-11T08:07:06.369Z,1.92
2017-12-11T08:09:36.251Z,2.38
2017-12-11T08:12:06.088Z,2.49
2017-12-11T08:14:35.990Z,2.54
2017-12-11T08:17:05.797Z,2.68
2017-12-11T08:19:35.697Z,2.68
2017-12-11T08:22:05.530Z,2.77
2017-12-11T08:24:35.487Z,2.76
2017-12-11T08:27:05.360Z,2.89
2017-12-11T08:29:35.298Z,2.86
2017-12-11T08:32:05.133Z,2.87
2017-12-11T08:34:35.274Z,2.88
2017-12-11T08:37:05.258Z,2.99
2017-12-11T08:39:35.155Z,3.04
2017-12-11T08:42:05.069Z,3.02
2017-12-11T08:44:34.885Z,3.09
2017-12-11T08:47:04.784Z,3.38
2017-12-11T08:49:34.656Z,3.45
2017-12-11T08:52:04.500Z,3.43
2017-12-11T08:54:34.557Z,3.50
2017-12-11T08:57:04.465Z,3.48
2017-12-11T08:59:34.353Z,3.51
2017-12-11T09:02:04.165Z,3.51
2017-12-11T09:04:34.001Z,3.56
2017-12-11T09:07:03.846Z,3.74
2017-12-11T09:09:33.670Z,3.98
2017-12-11T09:12:03.569Z,4.39
2017-12-11T09:14:33.383Z,4.66
2017-12-11T09:17:03.243Z,4.45
2017-12-11T09:19:33.262Z,4.51
2017-12-11T09:22:03.221Z,4.69
2017-12-11T09:24:33.126Z,4.49
2017-12-11T09:27:03.067Z,4.60
2017-12-11T09:29:32.965Z,5.08
2017-12-11T09:32:02.980Z,4.89
2017-12-11T09:34:32.833Z,4.80
2017-12-11T09:37:02.951Z,5.00
2017-12-11T09:39:32.872Z,4.90
2017-12-11T09:42:02.446Z,5.03
2017-12-11T09:44:32.298Z,5.01
2017-12-11T09:47:02.103Z,5.30
2017-12-11T09:49:31.929Z,5.06
2017-12-11T09:52:01.906Z,4.26
2017-12-11T09:54:31.478Z,5.09
2017-12-11T09:57:01.343Z,4.69
2017-12-11T09:59:31.205Z,4.11
2017-12-11T10:02:01.061Z,4.38
2017-12-11T10:04:32.401Z,4.69
2017-12-11T10:07:02.309Z,4.78
2017-12-11T10:09:32.106Z,4.81
2017-12-11T10:12:02.033Z,5.28
2017-12-11T10:14:31.953Z,5.12
2017-12-11T10:17:01.823Z,5.32
2017-12-11T10:19:31.768Z,5.25
2017-12-11T10:22:01.603Z,5.59
2017-12-11T10:24:31.483Z,5.79
2017-12-11T10:27:01.641Z,5.79
2017-12-11T10:29:31.515Z,4.89
2017-12-11T10:32:01.535Z,5.24
2017-12-11T10:34:31.454Z,5.12
2017-12-11T10:37:01.525Z,5.05
2017-12-11T10:39:31.405Z,5.25
2017-12-11T10:42:02.284Z,5.32
2017-12-11T10:44:32.523Z,5.50
2017-12-11T10:47:02.542Z,5.45
2017-12-11T10:49:32.452Z,5.65
2017-12-11T10:52:02.446Z,5.57
2017-12-11T10:54:32.448Z,5.61
2017-12-11T10:57:02.460Z,5.43
2017-12-11T10:59:32.399Z,5.37
2017-12-11T11:02:02.339Z,5.37
2017-12-11T11:04:32.241Z,5.49
2017-12-11T11:07:02.284Z,5.45
2017-12-11T11:09:32.149Z,5.46
2017-12-11T11:12:02.436Z,5.57
2017-12-11T11:14:32.333Z,5.69
2017-12-11T11:17:02.201Z,5.84
2017-12-11T11:19:32.015Z,5.69
2017-12-11T11:22:01.846Z,5.90
2017-12-11T11:24:32.541Z,5.92
2017-12-11T11:27:02.374Z,6.14
2017-12-11T11:29:32.282Z,6.13
2017-12-11T11:32:02.087Z,6.22
2017-12-11T11:34:32.105Z,6.36
2017-12-11T11:37:02.164Z,6.64
2017-12-11T11:39:31.992Z,6.76
2017-12-11T11:42:01.867Z,6.84
2017-12-11T11:44:31.729Z,6.93
2017-12-11T11:47:01.560Z,7.29
2017-12-11T11:49:31.396Z,7.42
2017-12-11T11:52:01.190Z,7.52
2017-12-11T11:54:30.646Z,7.79
2017-12-11T11:57:00.469Z,8.00
2017-12-11T11:59:30.010Z,8.18
2017-12-11T12:01:59.576Z,8.35
2017-12-11T12:04:29.377Z,8.37
2017-12-11T12:06:59.259Z,8.50
2017-12-11T12:09:29.293Z,8.57
2017-12-11T12:11:59.131Z,8.67
2017-12-11T12:14:28.938Z,8.78
2017-12-11T12:16:58.784Z,8.80
2017-12-11T12:19:28.604Z,8.65
2017-12-11T12:21:58.413Z,8.90
2017-12-11T12:24:28.342Z,8.92
2017-12-11T12:26:58.432Z,8.90
2017-12-11T12:29:28.288Z,8.90
2017-12-11T12:31:58.132Z,8.84
2017-12-11T12:34:27.972Z,8.79
2017-12-11T12:36:58.207Z,8.85
2017-12-11T12:39:28.076Z,8.93
2017-12-11T12:41:57.878Z,8.75
2017-12-11T12:44:28.005Z,8.82
2017-12-11T12:46:58.039Z,8.83
2017-12-11T12:49:27.894Z,8.64
2017-12-11T12:51:57.789Z,8.59
2017-12-11T12:54:27.650Z,8.54
2017-12-11T12:56:57.587Z,8.49
2017-12-11T12:59:27.386Z,8.49
2017-12-11T13:01:57.194Z,8.43
2017-12-11T13:04:27.104Z,8.38
2017-12-11T13:06:57.014Z,8.18
2017-12-11T13:09:26.949Z,8.21
2017-12-11T13:11:56.744Z,8.17
2017-12-11T13:14:26.556Z,7.95
2017-12-11T13:16:56.394Z,7.90
2017-12-11T13:19:26.216Z,7.86
2017-12-11T13:21:56.052Z,7.81
2017-12-11T13:24:25.885Z,7.77
2017-12-11T13:26:55.674Z,7.73
2017-12-11T13:29:25.466Z,7.79
2017-12-11T13:31:55.352Z,7.82
2017-12-11T13:34:25.145Z,7.82
2017-12-11T13:36:55.177Z,7.88
2017-12-11T13:39:25.141Z,7.87
2017-12-11T13:41:55.022Z,7.85
2017-12-11T13:44:24.929Z,7.78
2017-12-11T13:46:54.716Z,7.78
2017-12-11T13:49:24.524Z,7.76
2017-12-11T13:51:54.361Z,7.79
2017-12-11T13:54:24.306Z,7.81
2017-12-11T13:56:54.136Z,7.79
2017-12-11T13:59:23.944Z,7.66
2017-12-11T14:01:53.748Z,7.54
2017-12-11T14:04:23.526Z,7.49
2017-12-11T14:06:53.328Z,7.57
2017-12-11T14:09:23.145Z,7.53
2017-12-11T14:11:52.973Z,7.53
2017-12-11T14:14:22.788Z,7.59
2017-12-11T14:16:52.620Z,7.57
2017-12-11T14:19:22.530Z,7.72
2017-12-11T14:21:52.367Z,7.85
2017-12-11T14:24:22.263Z,7.98
2017-12-11T14:26:52.089Z,8.06
2017-12-11T14:29:21.971Z,7.96
2017-12-11T14:31:51.494Z,7.80
2017-12-11T14:34:21.315Z,7.71
2017-12-11T14:36:51.259Z,7.60
2017-12-11T14:39:21.471Z,7.53
2017-12-11T14:41:51.406Z,7.56
2017-12-11T14:44:21.199Z,7.61
2017-12-11T14:46:50.721Z,7.73
2017-12-11T14:49:20.611Z,7.71
2017-12-11T14:51:50.579Z,7.77
2017-12-11T14:54:20.408Z,7.66
2017-12-11T14:56:50.201Z,7.65
2017-12-11T14:59:20.022Z,7.57
2017-12-11T15:01:49.819Z,7.42
2017-12-11T15:04:19.609Z,7.33
2017-12-11T15:06:49.434Z,7.25
2017-12-11T15:09:19.250Z,7.21
2017-12-11T15:11:49.032Z,7.21
2017-12-11T15:14:18.850Z,7.25
2017-12-11T15:16:48.654Z,7.22
2017-12-11T15:19:18.528Z,7.30
2017-12-11T15:21:48.358Z,7.19
2017-12-11T15:24:17.879Z,7.07
2017-12-11T15:26:47.689Z,7.13
2017-12-11T15:29:17.510Z,7.08
2017-12-11T15:31:46.976Z,6.98
2017-12-11T15:34:16.802Z,7.04
2017-12-11T15:36:46.256Z,6.93
2017-12-11T15:39:16.311Z,7.18
2017-12-11T15:41:46.165Z,7.32
2017-12-11T15:44:16.014Z,7.40
2017-12-11T15:46:45.876Z,7.31
2017-12-11T15:49:15.832Z,7.32
2017-12-11T15:51:45.292Z,7.31
2017-12-11T15:54:15.112Z,7.41
2017-12-11T15:56:44.925Z,7.55
2017-12-11T15:59:14.730Z,7.64
2017-12-11T16:01:44.541Z,7.52
2017-12-11T16:04:14.402Z,7.47
2017-12-11T16:06:44.194Z,7.50
2017-12-11T16:09:14.000Z,7.57
2017-12-11T16:11:43.883Z,7.59
2017-12-11T16:14:13.709Z,7.69
2017-12-11T16:16:43.531Z,7.78
2017-12-11T16:19:13.347Z,7.83
2017-12-11T16:21:43.175Z,7.86
2017-12-11T16:24:13.085Z,8.05
2017-12-11T16:26:42.965Z,8.15
2017-12-11T16:29:12.789Z,8.16
2017-12-11T16:31:42.644Z,8.14
2017-12-11T16:34:12.492Z,8.19
2017-12-11T16:36:42.310Z,8.19
2017-12-11T16:39:12.147Z,8.19
2017-12-11T16:41:42.219Z,8.24
2017-12-11T16:44:12.061Z,8.10
2017-12-11T16:46:42.286Z,8.11
2017-12-11T16:49:12.215Z,8.18
2017-12-11T16:51:42.017Z,8.40
2017-12-11T16:54:11.888Z,8.41
2017-12-11T16:56:41.746Z,8.34
2017-12-11T16:59:11.575Z,8.34
2017-12-11T17:01:41.186Z,8.26
2017-12-11T17:04:11.070Z,8.26
2017-12-11T17:06:40.592Z,8.13
2017-12-11T17:09:11.083Z,8.06
2017-12-11T17:11:40.942Z,8.21
2017-12-11T17:14:10.822Z,8.12
2017-12-11T17:16:41.031Z,8.05
2017-12-11T17:19:11.698Z,8.00
2017-12-11T17:21:41.486Z,8.11
2017-12-11T17:24:11.363Z,8.43
2017-12-11T17:26:41.338Z,8.53
2017-12-11T17:29:11.494Z,8.69
2017-12-11T17:31:41.324Z,8.70
2017-12-11T17:34:11.963Z,8.59
2017-12-11T17:36:41.829Z,8.49
2017-12-11T17:39:11.718Z,8.35
2017-12-11T17:41:43.181Z,8.31
2017-12-11T17:44:13.060Z,8.28
2017-12-11T17:46:42.990Z,8.09
2017-12-11T17:49:12.781Z,8.00
2017-12-11T17:51:42.951Z,7.94
2017-12-11T17:54:12.830Z,8.06
2017-12-11T17:56:42.859Z,8.20
2017-12-11T17:59:12.747Z,8.18
2017-12-11T18:01:42.662Z,8.05
2017-12-11T18:04:12.531Z,8.01
2017-12-11T18:06:42.408Z,7.95
2017-12-11T18:09:12.294Z,7.89
2017-12-11T18:11:42.170Z,7.79
2017-12-11T18:14:12.442Z,7.90
2017-12-11T18:16:42.467Z,7.88
2017-12-11T18:19:12.376Z,7.85
2017-12-11T18:21:42.763Z,7.75
2017-12-11T18:24:12.611Z,7.70
2017-12-11T18:26:43.038Z,7.62
2017-12-11T18:29:12.957Z,7.50
2017-12-11T18:31:42.753Z,7.59
2017-12-11T18:34:12.655Z,7.71
2017-12-11T18:36:42.493Z,7.66
2017-12-11T18:39:12.605Z,7.66
2017-12-11T18:41:42.558Z,7.67
2017-12-11T18:44:12.684Z,7.67
2017-12-11T18:46:42.601Z,7.78
2017-12-11T18:49:12.519Z,7.86
2017-12-11T18:51:42.494Z,7.85
2017-12-11T18:54:12.384Z,7.78
2017-12-11T18:56:42.767Z,7.71
2017-12-11T18:59:12.616Z,7.65
2017-12-11T19:01:42.598Z,7.72
2017-12-11T19:04:12.442Z,7.69
2017-12-11T19:06:42.389Z,7.62
2017-12-11T19:09:12.648Z,7.68
2017-12-11T19:11:42.478Z,7.72
2017-12-11T19:14:12.534Z,7.59
2017-12-11T19:16:43.134Z,7.83
2017-12-11T19:19:13.008Z,7.72
2017-12-11T19:21:42.558Z,7.63
2017-12-11T19:24:12.656Z,7.68
2017-12-11T19:26:42.563Z,7.78
2017-12-11T19:29:12.616Z,7.84
2017-12-11T19:31:42.446Z,7.82
2017-12-11T19:34:12.360Z,7.66
2017-12-11T19:36:42.225Z,7.73
2017-12-11T19:39:12.111Z,7.70
2017-12-11T19:41:42.033Z,7.61
2017-12-11T19:44:11.864Z,7.71
2017-12-11T19:46:41.816Z,7.66
2017-12-11T19:49:11.658Z,7.72
2017-12-11T19:51:41.474Z,7.68
2017-12-11T19:54:11.554Z,7.57
2017-12-11T19:56:41.391Z,7.64
2017-12-11T19:59:11.214Z,7.69
2017-12-11T20:01:41.031Z,7.64
2017-12-11T20:04:10.911Z,7.63
2017-12-11T20:06:40.816Z,7.62
2017-12-11T20:09:10.634Z,7.72
2017-12-11T20:11:40.542Z,7.88
2017-12-11T20:14:10.411Z,8.05
2017-12-11T20:16:40.261Z,7.97
2017-12-11T20:19:10.097Z,8.00
2017-12-11T20:21:39.936Z,7.80
2017-12-11T20:24:10.305Z,7.71
2017-12-11T20:26:41.412Z,7.61
2017-12-11T20:29:11.357Z,7.48
2017-12-11T20:31:41.204Z,7.40
2017-12-11T20:34:11.418Z,7.40
2017-12-11T20:36:41.268Z,7.50
2017-12-11T20:39:11.107Z,7.58
2017-12-11T20:41:40.907Z,7.72
2017-12-11T20:44:10.752Z,7.66
2017-12-11T20:46:40.575Z,7.68
2017-12-11T20:49:10.398Z,7.68
2017-12-11T20:51:40.202Z,7.72
2017-12-11T20:54:10.117Z,7.68
2017-12-11T20:56:39.930Z,7.60
2017-12-11T20:59:09.742Z,7.58
2017-12-11T21:01:39.568Z,7.57
2017-12-11T21:04:09.550Z,7.56
2017-12-11T21:06:40.500Z,7.72
2017-12-11T21:09:10.305Z,7.66
2017-12-11T21:11:40.129Z,7.80
2017-12-11T21:14:09.952Z,7.67
2017-12-11T21:16:39.498Z,7.78
2017-12-11T21:19:09.035Z,7.71
2017-12-11T21:21:38.872Z,7.54
2017-12-11T21:24:08.795Z,7.89
2017-12-11T21:26:38.671Z,8.09
2017-12-11T21:29:08.485Z,8.33
2017-12-11T21:31:38.307Z,8.17
2017-12-11T21:34:08.111Z,8.05
2017-12-11T21:36:37.940Z,7.89
2017-12-11T21:39:07.799Z,7.63
2017-12-11T21:41:37.290Z,7.59
2017-12-11T21:44:07.116Z,7.45
2017-12-11T21:46:37.217Z,7.40
2017-12-11T21:49:06.993Z,7.48
2017-12-11T21:51:36.875Z,7.63
2017-12-11T21:54:06.677Z,7.70
2017-12-11T21:56:36.493Z,7.57
2017-12-11T21:59:06.338Z,7.37
2017-12-11T22:01:36.130Z,7.09
2017-12-11T22:04:05.905Z,6.85
2017-12-11T22:06:35.680Z,6.62
2017-12-11T22:09:05.180Z,6.39
2017-12-11T22:11:34.987Z,6.21
2017-12-11T22:14:07.088Z,6.05
2017-12-11T22:16:36.557Z,5.89
2017-12-11T22:19:06.314Z,5.74
2017-12-11T22:21:36.161Z,5.62
2017-12-11T22:24:05.952Z,5.48
2017-12-11T22:26:35.422Z,5.33
2017-12-11T22:29:04.951Z,5.30
2017-12-11T22:31:34.727Z,5.23
2017-12-11T22:34:04.513Z,5.19
2017-12-11T22:36:34.379Z,5.12
2017-12-11T22:39:03.680Z,5.01
2017-12-11T22:41:33.462Z,4.93
2017-12-11T22:44:03.250Z,4.85
2017-12-11T22:46:33.055Z,4.75
2017-12-11T22:49:02.853Z,4.69
2017-12-11T22:51:36.645Z,4.61
2017-12-11T22:54:06.449Z,4.42
2017-12-11T22:56:36.247Z,4.35
2017-12-11T22:59:06.132Z,4.31
2017-12-11T23:01:36.082Z,4.24
2017-12-11T23:04:05.657Z,4.21
2017-12-11T23:06:35.493Z,4.19
2017-12-11T23:09:05.038Z,4.11
2017-12-11T23:11:34.856Z,4.10
2017-12-11T23:14:04.651Z,4.03
2017-12-11T23:16:35.886Z,4.11
2017-12-11T23:19:07.664Z,3.98
2017-12-11T23:21:37.576Z,4.00
2017-12-11T23:24:07.356Z,4.02
2017-12-11T23:26:37.137Z,4.23
2017-12-11T23:29:06.908Z,4.31
2017-12-11T23:31:36.686Z,4.53
2017-12-11T23:34:06.460Z,4.62
2017-12-11T23:36:36.259Z,4.56
2017-12-11T23:39:05.730Z,4.63
2017-12-11T23:41:35.505Z,4.44
2017-12-11T23:44:05.346Z,4.59
2017-12-11T23:46:35.165Z,4.53
2017-12-11T23:49:04.976Z,4.31
2017-12-11T23:51:35.138Z,4.18
2017-12-11T23:57:11.346Z,3.96
2017-12-11T23:59:41.245Z,3.89
